Time;durP1;ratioP1;P1;durP2;ratioP2;P2;SDS_P1;SDS_P2;PMS_P1;PMS_P2;Temp;Humidity;BMP_temperature;BMP_pressure;BME280_temperature;BME280_humidity;BME280_pressure;Samples;Min_cycle;Max_cycle;Signal;HPM_P1;HPM_P2
2021/08/25 00:02:09;;;;;;;20.00;14.73;;;13.10;98.00;;;;;;5063730;28;20047;-72
2021/08/25 00:04:44;;;;;;;19.45;13.95;;;13.10;98.00;;;;;;5061666;28;20032;-72
2021/08/25 00:07:10;;;;;;;17.50;13.27;;;13.10;98.00;;;;;;5061759;28;20048;-72
2021/08/25 00:09:37;;;;;;;20.90;13.68;;;13.20;98.00;;;;;;5061082;28;20036;-72
2021/08/25 00:12:04;;;;;;;20.02;15.32;;;13.20;98.00;;;;;;5060944;28;20024;-72
2021/08/25 00:14:30;;;;;;;19.13;13.90;;;13.20;98.00;;;;;;5062516;28;20426;-72
2021/08/25 00:16:55;;;;;;;17.45;14.00;;;13.20;98.00;;;;;;5059384;28;20090;-73
2021/08/25 00:19:21;;;;;;;18.88;13.80;;;13.20;98.00;;;;;;5057086;28;20032;-72
2021/08/25 00:21:47;;;;;;;20.48;14.50;;;13.20;98.00;;;;;;5059461;28;20420;-73
2021/08/25 00:24:12;;;;;;;21.63;13.82;;;13.30;98.00;;;;;;5060347;28;20039;-73
2021/08/25 00:26:38;;;;;;;17.65;13.13;;;13.30;98.00;;;;;;5057951;28;20049;-73
2021/08/25 00:29:04;;;;;;;20.42;13.43;;;13.30;98.00;;;;;;5057149;28;20040;-73
2021/08/25 00:31:30;;;;;;;19.38;13.20;;;13.30;98.00;;;;;;5059023;28;20082;-73
2021/08/25 00:33:58;;;;;;;18.92;12.65;;;13.30;98.00;;;;;;5056287;28;20421;-72
2021/08/25 00:36:24;;;;;;;17.73;12.70;;;13.30;98.00;;;;;;5065079;28;20025;-73
2021/08/25 00:38:49;;;;;;;19.80;13.85;;;13.30;98.00;;;;;;5062822;28;20029;-72
2021/08/25 00:41:15;;;;;;;19.77;12.13;;;13.30;98.00;;;;;;5066058;28;20375;-73
2021/08/25 00:43:41;;;;;;;19.88;13.07;;;13.20;98.00;;;;;;5066686;28;20029;-72
2021/08/25 00:46:07;;;;;;;18.35;13.65;;;13.20;98.00;;;;;;5062087;28;20027;-73
2021/08/25 00:48:33;;;;;;;17.95;12.23;;;13.00;98.00;;;;;;5064593;28;20313;-73
2021/08/25 00:50:58;;;;;;;17.00;12.55;;;12.90;98.00;;;;;;5070484;28;20020;-72
2021/08/25 00:53:24;;;;;;;17.60;11.98;;;12.70;98.00;;;;;;5068262;28;20020;-73
2021/08/25 00:55:52;;;;;;;16.60;12.23;;;12.70;98.00;;;;;;5067224;28;20028;-72
2021/08/25 00:58:17;;;;;;;20.02;12.57;;;12.70;98.00;;;;;;5069378;28;20703;-73
2021/08/25 01:00:50;;;;;;;17.20;12.98;;;12.60;98.00;;;;;;5064920;28;20029;-73
2021/08/25 01:03:19;;;;;;;16.60;11.77;;;12.60;98.00;;;;;;5047492;28;20024;-73
2021/08/25 01:05:47;;;;;;;18.23;12.52;;;12.60;98.00;;;;;;5065918;28;20029;-73
2021/08/25 01:08:14;;;;;;;17.80;12.55;;;12.60;98.00;;;;;;5064107;28;20036;-73
2021/08/25 01:10:40;;;;;;;21.38;13.43;;;12.40;98.00;;;;;;5068264;28;20136;-72
2021/08/25 01:13:08;;;;;;;17.90;12.73;;;12.30;98.00;;;;;;5066118;28;20103;-73
2021/08/25 01:15:37;;;;;;;16.42;12.05;;;12.20;98.00;;;;;;5066757;28;20020;-72
2021/08/25 01:18:05;;;;;;;20.88;13.45;;;12.10;98.00;;;;;;5068458;28;20024;-73
2021/08/25 01:20:31;;;;;;;18.55;13.20;;;12.10;98.00;;;;;;5068265;28;20104;-73
2021/08/25 01:22:57;;;;;;;19.73;12.80;;;12.20;98.00;;;;;;5067182;28;20028;-72
2021/08/25 01:25:26;;;;;;;20.08;13.52;;;12.20;98.00;;;;;;5064433;28;20657;-73
2021/08/25 01:28:03;;;;;;;16.50;12.52;;;12.20;98.00;;;;;;5056588;28;20029;-73
2021/08/25 01:30:31;;;;;;;18.63;12.98;;;12.20;98.00;;;;;;5066197;28;21090;-73
2021/08/25 01:33:01;;;;;;;19.48;13.85;;;12.10;98.00;;;;;;5064892;28;20028;-73
2021/08/25 01:35:37;;;;;;;17.90;13.32;;;12.00;98.00;;;;;;5064991;28;21429;-72
2021/08/25 01:38:04;;;;;;;20.23;14.13;;;12.00;98.00;;;;;;5065137;28;20029;-73
2021/08/25 01:40:32;;;;;;;17.10;12.73;;;11.90;98.00;;;;;;5063704;28;20066;-72
2021/08/25 01:42:59;;;;;;;21.90;14.48;;;11.90;98.00;;;;;;5066914;28;20136;-73
2021/08/25 01:45:25;;;;;;;19.35;13.05;;;11.70;98.00;;;;;;5062825;28;20041;-73
2021/08/25 01:47:51;;;;;;;20.83;14.95;;;11.70;98.00;;;;;;5065927;28;20031;-73
2021/08/25 01:50:17;;;;;;;19.73;13.77;;;11.70;98.00;;;;;;5065528;28;20024;-73
2021/08/25 01:52:43;;;;;;;20.75;13.85;;;11.80;98.00;;;;;;5064149;28;20031;-73
2021/08/25 01:55:09;;;;;;;20.77;14.32;;;11.80;98.00;;;;;;5063484;28;20024;-73
2021/08/25 01:57:35;;;;;;;19.33;13.50;;;11.80;98.00;;;;;;5065101;28;20104;-73
2021/08/25 02:00:01;;;;;;;17.83;13.50;;;11.80;98.00;;;;;;5065590;28;20673;-73
2021/08/25 02:02:26;;;;;;;21.15;14.73;;;11.80;98.00;;;;;;5060522;28;20325;-73
2021/08/25 02:04:52;;;;;;;20.13;13.82;;;11.80;98.00;;;;;;5066630;28;20043;-73
2021/08/25 02:07:17;;;;;;;20.77;13.57;;;11.70;98.00;;;;;;5061935;28;20040;-73
2021/08/25 02:09:46;;;;;;;21.00;13.48;;;11.50;98.00;;;;;;5062292;28;20040;-73
2021/08/25 02:12:12;;;;;;;19.42;12.32;;;11.40;98.00;;;;;;5062659;28;20047;-73
2021/08/25 02:14:37;;;;;;;18.13;13.43;;;11.40;98.00;;;;;;5060042;28;20033;-73
2021/08/25 02:17:06;;;;;;;19.40;12.77;;;11.30;98.00;;;;;;5065030;28;20428;-73
2021/08/25 02:19:33;;;;;;;18.40;13.23;;;11.20;98.00;;;;;;5064901;28;20149;-73
2021/08/25 02:21:59;;;;;;;19.05;13.05;;;11.20;98.00;;;;;;5065910;28;20025;-74
2021/08/25 02:24:24;;;;;;;19.13;12.88;;;11.30;98.00;;;;;;5061722;28;20032;-73
2021/08/25 02:26:50;;;;;;;16.25;11.82;;;11.40;98.00;;;;;;5064328;28;20089;-73
2021/08/25 02:29:15;;;;;;;17.55;11.98;;;11.40;98.00;;;;;;5054027;28;20024;-73
2021/08/25 02:31:41;;;;;;;25.77;13.45;;;11.30;98.00;;;;;;5062424;28;20025;-73
2021/08/25 02:34:07;;;;;;;19.63;11.93;;;11.30;98.00;;;;;;5064451;28;20036;-73
2021/08/25 02:36:33;;;;;;;18.67;12.32;;;11.20;98.00;;;;;;5064353;28;20336;-73
2021/08/25 02:38:58;;;;;;;18.63;13.18;;;11.20;98.00;;;;;;5064663;28;20419;-73
2021/08/25 02:41:24;;;;;;;19.65;13.32;;;11.10;98.00;;;;;;5060677;28;20328;-75
2021/08/25 02:43:50;;;;;;;20.25;12.48;;;11.10;98.00;;;;;;5065103;28;20123;-73
2021/08/25 02:46:16;;;;;;;17.00;12.18;;;11.10;98.00;;;;;;5063188;28;20111;-72
2021/08/25 02:48:42;;;;;;;18.17;12.98;;;11.10;98.00;;;;;;5064839;28;20027;-72
2021/08/25 02:51:08;;;;;;;19.00;12.80;;;11.00;98.00;;;;;;5066282;28;20039;-73
2021/08/25 02:53:34;;;;;;;18.08;12.18;;;11.00;98.00;;;;;;5063203;28;20357;-73
2021/08/25 02:55:59;;;;;;;16.13;11.27;;;11.00;98.00;;;;;;5065248;28;20028;-73
2021/08/25 02:58:25;;;;;;;16.40;11.70;;;11.00;98.00;;;;;;5066010;28;20032;-72
2021/08/25 03:00:51;;;;;;;17.30;12.02;;;10.90;98.00;;;;;;5063263;28;20054;-73
2021/08/25 03:03:16;;;;;;;18.77;11.68;;;10.80;98.00;;;;;;5063726;28;20198;-73
2021/08/25 03:05:42;;;;;;;17.38;12.68;;;10.70;98.00;;;;;;5064157;28;20429;-73
2021/08/25 03:08:08;;;;;;;20.55;12.85;;;10.70;98.00;;;;;;5065432;28;20384;-73
2021/08/25 03:10:34;;;;;;;16.52;12.23;;;10.70;98.00;;;;;;5062920;28;20583;-73
2021/08/25 03:12:59;;;;;;;19.15;12.18;;;10.80;98.00;;;;;;5066537;28;20028;-73
2021/08/25 03:15:25;;;;;;;17.30;12.27;;;10.80;98.00;;;;;;5062552;28;20116;-72
2021/08/25 03:17:51;;;;;;;19.95;12.20;;;10.80;98.00;;;;;;5065975;28;20059;-73
2021/08/25 03:20:17;;;;;;;20.70;12.73;;;10.80;98.00;;;;;;5064217;28;20025;-73
2021/08/25 03:22:43;;;;;;;18.30;11.93;;;10.70;98.00;;;;;;5061677;28;20044;-73
2021/08/25 03:25:09;;;;;;;16.73;10.25;;;10.50;98.00;;;;;;5062480;28;20362;-73
2021/08/25 03:27:35;;;;;;;16.15;10.43;;;10.40;98.00;;;;;;5058406;28;20052;-73
2021/08/25 03:30:01;;;;;;;14.80;10.60;;;10.30;98.00;;;;;;5066394;28;20322;-73
2021/08/25 03:32:27;;;;;;;15.85;11.20;;;10.30;98.00;;;;;;5060761;28;20035;-73
2021/08/25 03:34:53;;;;;;;19.52;12.13;;;10.30;98.00;;;;;;5065935;28;20025;-73
2021/08/25 03:37:18;;;;;;;19.50;11.27;;;10.30;98.00;;;;;;5065760;28;20021;-73
2021/08/25 03:39:47;;;;;;;19.55;12.02;;;10.40;98.00;;;;;;5060860;28;20156;-73
2021/08/25 03:42:13;;;;;;;22.77;11.55;;;10.40;98.00;;;;;;5061245;28;20036;-73
2021/08/25 03:44:39;;;;;;;18.45;12.95;;;10.40;98.00;;;;;;5060948;28;20111;-74
2021/08/25 03:47:06;;;;;;;20.85;13.80;;;10.30;98.00;;;;;;5063293;28;20028;-73
2021/08/25 03:49:33;;;;;;;20.02;13.52;;;10.10;98.00;;;;;;5062216;28;20041;-73
2021/08/25 03:51:59;;;;;;;20.67;13.75;;;9.90;98.00;;;;;;5064142;28;20082;-73
2021/08/25 03:54:26;;;;;;;26.67;18.77;;;10.00;98.00;;;;;;5060770;28;20024;-73
2021/08/25 03:56:52;;;;;;;30.85;19.38;;;9.90;98.00;;;;;;5065487;28;20057;-73
2021/08/25 03:59:17;;;;;;;30.02;18.48;;;9.80;98.00;;;;;;5067104;28;20033;-73
2021/08/25 04:01:43;;;;;;;28.80;20.33;;;9.70;98.00;;;;;;5061317;28;20440;-74
2021/08/25 04:04:09;;;;;;;28.88;19.98;;;9.60;98.00;;;;;;5065442;28;20119;-73
2021/08/25 04:06:36;;;;;;;36.30;25.25;;;9.50;98.00;;;;;;5063909;28;20033;-73
2021/08/25 04:09:02;;;;;;;43.13;24.70;;;9.40;98.00;;;;;;5060180;28;20143;-73
2021/08/25 04:11:28;;;;;;;31.27;21.70;;;9.30;98.00;;;;;;5065108;28;20020;-74
2021/08/25 04:13:53;;;;;;;35.40;22.52;;;9.20;97.90;;;;;;5064865;28;20475;-73
2021/08/25 04:16:19;;;;;;;34.78;24.10;;;9.10;97.90;;;;;;5066641;28;20032;-72
2021/08/25 04:18:45;;;;;;;46.25;27.42;;;9.00;97.80;;;;;;5070769;28;20031;-72
2021/08/25 04:21:10;;;;;;;44.50;24.83;;;9.00;97.40;;;;;;5068007;28;20046;-73
2021/08/25 04:23:36;;;;;;;48.03;26.48;;;8.90;97.40;;;;;;5066191;28;20028;-73
2021/08/25 04:26:02;;;;;;;38.58;24.98;;;9.00;97.00;;;;;;5067170;28;20044;-74
2021/08/25 04:28:28;;;;;;;34.20;22.33;;;8.90;97.20;;;;;;5068604;28;20087;-72
2021/08/25 04:30:54;;;;;;;37.00;21.35;;;8.90;97.10;;;;;;5068219;28;20032;-72
2021/08/25 04:33:20;;;;;;;36.17;23.33;;;8.80;96.60;;;;;;5059683;28;20435;-73
2021/08/25 04:35:49;;;;;;;43.92;22.75;;;8.90;96.20;;;;;;5065090;28;20375;-73
2021/08/25 04:38:15;;;;;;;40.67;23.70;;;9.00;96.40;;;;;;5068487;28;20103;-73
2021/08/25 04:40:40;;;;;;;36.17;23.38;;;9.00;96.10;;;;;;5066715;28;20112;-73
2021/08/25 04:43:06;;;;;;;64.63;27.63;;;9.00;96.10;;;;;;5069126;28;20079;-73
2021/08/25 04:45:32;;;;;;;42.83;24.48;;;9.00;96.10;;;;;;5066182;28;20324;-73
2021/08/25 04:47:58;;;;;;;36.95;23.67;;;9.00;95.90;;;;;;5065683;28;20032;-72
2021/08/25 04:50:24;;;;;;;74.43;24.58;;;9.00;95.60;;;;;;5063754;28;20119;-72
2021/08/25 04:52:50;;;;;;;41.70;21.20;;;9.10;95.60;;;;;;5068211;28;20031;-73
2021/08/25 04:55:16;;;;;;;42.97;22.05;;;9.10;95.40;;;;;;5065192;28;20606;-72
2021/08/25 04:57:41;;;;;;;49.15;22.20;;;9.10;95.50;;;;;;5069203;28;20035;-75
2021/08/25 05:00:07;;;;;;;66.50;23.02;;;9.20;95.40;;;;;;5067506;28;20024;-73
2021/08/25 05:02:35;;;;;;;33.28;20.75;;;9.20;95.30;;;;;;5065253;28;20043;-73
2021/08/25 05:05:00;;;;;;;28.48;20.05;;;9.20;95.20;;;;;;5064856;28;20035;-72
2021/08/25 05:07:26;;;;;;;74.50;25.08;;;9.30;95.00;;;;;;5068841;28;20036;-73
2021/08/25 05:09:52;;;;;;;42.33;20.95;;;9.30;95.10;;;;;;5065718;28;20329;-73
2021/08/25 05:12:18;;;;;;;59.80;23.95;;;9.30;94.90;;;;;;5068883;28;20324;-73
2021/08/25 05:14:46;;;;;;;106.97;24.95;;;9.30;95.00;;;;;;5068680;28;20024;-73
2021/08/25 05:17:12;;;;;;;68.28;23.27;;;9.30;95.00;;;;;;5066986;28;20496;-75
2021/08/25 05:19:41;;;;;;;41.00;20.13;;;9.30;95.10;;;;;;5065890;28;20051;-74
2021/08/25 05:22:07;;;;;;;31.42;19.92;;;9.30;94.90;;;;;;5067489;28;20052;-72
2021/08/25 05:24:34;;;;;;;35.47;20.95;;;9.30;94.60;;;;;;5069995;28;20318;-73
2021/08/25 05:27:00;;;;;;;37.38;19.80;;;9.40;94.60;;;;;;5063791;28;20021;-73
2021/08/25 05:29:26;;;;;;;35.75;21.15;;;9.40;94.70;;;;;;5057583;28;20032;-73
2021/08/25 05:31:51;;;;;;;36.45;20.75;;;9.60;94.50;;;;;;5068114;28;20021;-73
2021/08/25 05:34:17;;;;;;;33.28;20.45;;;9.60;94.70;;;;;;5065937;28;20322;-72
2021/08/25 05:36:43;;;;;;;37.85;21.90;;;9.70;94.50;;;;;;5065473;28;20052;-73
2021/08/25 05:39:09;;;;;;;96.30;25.98;;;9.80;94.50;;;;;;5063835;28;20043;-73
2021/08/25 05:41:35;;;;;;;34.70;21.55;;;9.90;94.50;;;;;;5065541;28;20059;-73
2021/08/25 05:44:04;;;;;;;44.03;22.40;;;10.00;94.40;;;;;;5065622;28;20056;-74
2021/08/25 05:46:33;;;;;;;33.92;19.38;;;10.10;94.40;;;;;;5067916;28;20064;-74
2021/08/25 05:49:00;;;;;;;59.47;22.13;;;10.20;94.30;;;;;;5067306;28;20109;-73
2021/08/25 05:51:26;;;;;;;27.45;19.15;;;10.30;94.60;;;;;;5064929;28;20460;-72
2021/08/25 05:53:52;;;;;;;57.60;22.15;;;10.30;94.70;;;;;;5062093;28;20131;-72
2021/08/25 05:56:19;;;;;;;38.63;22.70;;;10.30;95.10;;;;;;5063647;28;20100;-74
2021/08/25 05:58:45;;;;;;;35.75;20.95;;;10.20;95.00;;;;;;5066127;28;20441;-73
2021/08/25 06:01:14;;;;;;;29.35;20.02;;;10.30;94.30;;;;;;5061312;28;20032;-72
2021/08/25 06:03:41;;;;;;;30.38;20.15;;;10.50;94.50;;;;;;5067043;28;20135;-73
2021/08/25 06:06:07;;;;;;;24.73;17.45;;;10.50;95.20;;;;;;5063348;28;20456;-73
2021/08/25 06:08:32;;;;;;;29.60;18.42;;;10.50;95.40;;;;;;5065265;28;20048;-73
2021/08/25 06:11:04;;;;;;;23.15;17.05;;;10.50;95.90;;;;;;5064530;28;20033;-73
2021/08/25 06:13:30;;;;;;;30.13;16.88;;;10.50;95.00;;;;;;5062505;28;20028;-72
2021/08/25 06:15:56;;;;;;;22.85;16.17;;;10.70;95.30;;;;;;5066902;28;20040;-73
2021/08/25 06:18:21;;;;;;;21.85;16.48;;;10.90;95.60;;;;;;5067702;28;20029;-72
2021/08/25 06:20:47;;;;;;;23.55;16.50;;;11.00;96.30;;;;;;5069465;28;20126;-73
2021/08/25 06:23:13;;;;;;;26.65;17.60;;;11.10;96.80;;;;;;5069972;28;20455;-73
2021/08/25 06:25:40;;;;;;;24.17;17.70;;;11.10;97.80;;;;;;5068361;28;20059;-73
2021/08/25 06:28:06;;;;;;;25.13;17.13;;;11.10;97.80;;;;;;5070119;28;20043;-72
2021/08/25 06:30:31;;;;;;;20.13;14.38;;;11.20;97.90;;;;;;5070464;28;20668;-73
2021/08/25 06:33:00;;;;;;;17.85;12.95;;;11.30;98.00;;;;;;5064241;28;20111;-73
2021/08/25 06:35:25;;;;;;;20.45;14.75;;;11.40;98.00;;;;;;5061233;28;20089;-73
2021/08/25 06:37:51;;;;;;;17.98;13.05;;;11.60;98.00;;;;;;5069449;28;20032;-73
2021/08/25 06:40:17;;;;;;;20.90;15.30;;;11.60;98.00;;;;;;5070014;28;20425;-73
2021/08/25 06:42:43;;;;;;;18.63;13.93;;;11.70;98.00;;;;;;5069397;28;20043;-74
2021/08/25 06:45:09;;;;;;;21.90;14.70;;;11.80;98.00;;;;;;5068198;28;20025;-72
2021/08/25 06:47:35;;;;;;;21.33;13.50;;;11.80;98.00;;;;;;5069225;28;20056;-72
2021/08/25 06:50:01;;;;;;;22.58;15.43;;;12.00;98.00;;;;;;5070312;28;20039;-73
2021/08/25 06:52:27;;;;;;;26.25;18.27;;;12.20;98.00;;;;;;5070014;28;20329;-73
2021/08/25 06:54:53;;;;;;;29.73;19.00;;;12.30;98.00;;;;;;5067258;28;20025;-74
2021/08/25 06:57:18;;;;;;;27.33;18.15;;;12.30;98.00;;;;;;5069623;28;20036;-73
2021/08/25 06:59:44;;;;;;;21.52;13.75;;;12.30;98.00;;;;;;5061602;28;20025;-73
2021/08/25 07:02:10;;;;;;;22.33;14.75;;;12.50;98.00;;;;;;5060738;28;20044;-73
2021/08/25 07:04:35;;;;;;;22.00;14.40;;;12.70;98.00;;;;;;5061348;28;20107;-73
2021/08/25 07:07:01;;;;;;;15.23;10.95;;;12.90;98.00;;;;;;5067427;28;20063;-75
2021/08/25 07:09:27;;;;;;;14.07;7.95;;;13.10;98.00;;;;;;5067512;28;20051;-74
2021/08/25 07:11:52;;;;;;;12.32;6.13;;;13.30;98.00;;;;;;5068875;28;20021;-74
2021/08/25 07:14:18;;;;;;;10.50;6.05;;;13.60;98.00;;;;;;5070160;28;20029;-74
2021/08/25 07:16:43;;;;;;;11.27;6.50;;;13.90;97.60;;;;;;5067572;28;20093;-73
2021/08/25 07:19:09;;;;;;;10.45;5.30;;;14.20;96.10;;;;;;5068515;28;20056;-73
2021/08/25 07:21:35;;;;;;;9.85;5.47;;;14.40;94.40;;;;;;5068116;28;20040;-72
2021/08/25 07:24:03;;;;;;;8.45;4.82;;;14.60;94.00;;;;;;5066285;28;20025;-73
2021/08/25 07:26:28;;;;;;;9.40;6.53;;;14.70;93.50;;;;;;5069919;28;20139;-73
2021/08/25 07:28:54;;;;;;;13.75;8.35;;;14.90;93.90;;;;;;5068589;28;20115;-73
2021/08/25 07:31:20;;;;;;;15.43;11.98;;;14.90;95.00;;;;;;5056913;28;20433;-73
2021/08/25 07:33:45;;;;;;;14.23;9.65;;;14.80;96.30;;;;;;5066338;28;20086;-74
2021/08/25 07:36:11;;;;;;;12.15;7.65;;;14.70;97.40;;;;;;5067317;28;20028;-74
2021/08/25 07:38:37;;;;;;;12.52;8.00;;;14.70;96.00;;;;;;5068908;28;20027;-73
2021/08/25 07:41:03;;;;;;;10.18;6.68;;;14.90;95.90;;;;;;5067694;28;20440;-73
2021/08/25 07:43:29;;;;;;;23.08;12.15;;;14.90;93.50;;;;;;5069657;28;20036;-74
2021/08/25 07:45:54;;;;;;;19.67;13.60;;;14.80;96.80;;;;;;5065691;28;20329;-73
2021/08/25 07:48:20;;;;;;;16.83;10.32;;;14.50;98.00;;;;;;5069542;28;20032;-73
2021/08/25 07:50:49;;;;;;;22.02;12.27;;;14.50;97.30;;;;;;5073935;28;20087;-73
2021/08/25 07:53:15;;;;;;;20.90;12.23;;;14.70;98.00;;;;;;5072371;28;20032;-73
2021/08/25 07:55:40;;;;;;;17.38;11.93;;;14.80;97.70;;;;;;5071617;28;20021;-74
2021/08/25 07:58:06;;;;;;;14.90;10.70;;;15.10;98.00;;;;;;5072171;28;20044;-73
2021/08/25 08:00:31;;;;;;;13.82;9.15;;;15.80;96.60;;;;;;5072109;28;20112;-73
2021/08/25 08:02:57;;;;;;;9.82;6.78;;;16.90;94.10;;;;;;5069468;28;20025;-73
2021/08/25 08:05:23;;;;;;;12.40;7.32;;;17.80;89.00;;;;;;5070783;28;20033;-74
2021/08/25 08:07:48;;;;;;;13.88;7.43;;;18.50;87.10;;;;;;5071267;28;20051;-74
2021/08/25 08:10:14;;;;;;;12.52;7.28;;;19.30;86.10;;;;;;5069836;28;20028;-73
2021/08/25 08:12:40;;;;;;;10.82;7.03;;;20.10;85.80;;;;;;5070062;28;20029;-74
2021/08/25 08:15:11;;;;;;;11.50;6.80;;;20.80;82.50;;;;;;5066015;28;20401;-73
2021/08/25 08:17:44;;;;;;;9.07;6.65;;;21.40;80.90;;;;;;5069976;28;20040;-74
2021/08/25 08:20:11;;;;;;;7.20;4.65;;;21.10;80.30;;;;;;5067757;28;20393;-74
2021/08/25 08:22:37;;;;;;;9.65;6.25;;;21.20;77.60;;;;;;5063163;28;20111;-73
2021/08/25 08:25:03;;;;;;;10.25;6.18;;;21.70;77.10;;;;;;5067408;28;20111;-73
2021/08/25 08:27:29;;;;;;;10.02;6.15;;;21.80;78.90;;;;;;5073292;28;20032;-73
2021/08/25 08:29:54;;;;;;;9.35;5.80;;;21.80;80.10;;;;;;5071720;28;20040;-73
2021/08/25 08:32:20;;;;;;;10.25;6.30;;;22.20;78.70;;;;;;5072010;28;20017;-73
2021/08/25 08:34:46;;;;;;;8.88;5.65;;;22.70;76.70;;;;;;5060015;28;20024;-73
2021/08/25 08:37:14;;;;;;;7.53;4.78;;;23.00;76.10;;;;;;5070762;28;20103;-73
2021/08/25 08:39:40;;;;;;;14.73;4.88;;;23.00;75.00;;;;;;5067326;28;20337;-74
2021/08/25 08:42:05;;;;;;;9.45;5.45;;;23.60;73.90;;;;;;5072247;28;20024;-74
2021/08/25 08:44:33;;;;;;;8.63;4.85;;;23.40;73.20;;;;;;5071302;28;20044;-74
2021/08/25 08:46:58;;;;;;;6.30;3.22;;;23.30;73.10;;;;;;5072865;28;20425;-73
2021/08/25 08:49:25;;;;;;;6.13;3.00;;;23.30;70.60;;;;;;5068939;28;20040;-74
2021/08/25 08:51:51;;;;;;;9.15;3.50;;;23.00;67.00;;;;;;5070912;28;20147;-74
2021/08/25 08:54:19;;;;;;;6.53;3.75;;;23.30;66.40;;;;;;5069284;28;20107;-74
2021/08/25 08:56:44;;;;;;;6.22;3.40;;;23.40;67.70;;;;;;5072403;28;20024;-74
2021/08/25 08:59:10;;;;;;;5.35;2.85;;;24.00;70.60;;;;;;5068114;28;20032;-74
2021/08/25 09:01:36;;;;;;;6.07;3.30;;;24.20;67.50;;;;;;5071016;28;20041;-74
2021/08/25 09:04:02;;;;;;;8.07;3.10;;;25.00;65.80;;;;;;5069278;28;20016;-74
2021/08/25 09:06:44;;;;;;;5.80;3.08;;;25.10;62.60;;;;;;5069008;28;20035;-74
2021/08/25 09:09:10;;;;;;;6.10;3.40;;;24.70;63.40;;;;;;5070583;28;20336;-74
2021/08/25 09:11:54;;;;;;;6.03;2.80;;;25.30;64.30;;;;;;5071652;28;20029;-74
2021/08/25 09:14:23;;;;;;;5.63;3.15;;;25.20;62.00;;;;;;5070462;28;20032;-74
2021/08/25 09:16:48;;;;;;;7.03;3.03;;;25.60;62.30;;;;;;5071995;28;20025;-74
2021/08/25 09:19:17;;;;;;;5.47;2.72;;;25.10;61.10;;;;;;5071838;28;20035;-73
2021/08/25 09:21:46;;;;;;;6.25;2.75;;;24.40;62.20;;;;;;5072075;28;20029;-74
2021/08/25 09:24:13;;;;;;;6.53;3.15;;;24.00;64.10;;;;;;5069889;28;20191;-74
2021/08/25 09:27:12;;;;;;;6.40;3.10;;;23.10;65.60;;;;;;5070279;28;20062;-74
2021/08/25 09:29:53;;;;;;;6.75;2.90;;;23.70;63.60;;;;;;5071528;28;20032;-74
2021/08/25 09:32:20;;;;;;;5.95;3.17;;;24.50;65.10;;;;;;5065385;28;20421;-74
2021/08/25 09:34:52;;;;;;;6.18;2.78;;;25.50;62.80;;;;;;5068315;28;20350;-74
2021/08/25 09:37:18;;;;;;;5.80;2.95;;;26.20;60.40;;;;;;5070158;28;20036;-74
2021/08/25 09:39:55;;;;;;;6.75;3.20;;;26.60;60.10;;;;;;5062205;28;20079;-73
2021/08/25 09:42:22;;;;;;;7.43;2.90;;;25.70;58.70;;;;;;5068440;28;20025;-74
2021/08/25 09:45:08;;;;;;;5.55;3.00;;;25.20;61.30;;;;;;5066331;28;20086;-73
2021/08/25 09:47:55;;;;;;;6.15;2.92;;;25.50;58.40;;;;;;5067803;28;20028;-73
2021/08/25 09:50:26;;;;;;;6.53;3.13;;;25.10;62.00;;;;;;5070386;28;20033;-73
2021/08/25 09:52:52;;;;;;;6.25;2.65;;;25.20;59.90;;;;;;5069202;28;20112;-72
2021/08/25 09:55:33;;;;;;;5.95;3.00;;;25.10;61.10;;;;;;5069419;28;20020;-74
2021/08/25 09:57:59;;;;;;;6.00;3.00;;;25.70;61.50;;;;;;5069489;28;20022;-73
2021/08/25 10:00:25;;;;;;;6.03;2.92;;;26.10;58.80;;;;;;5071096;28;20063;-73
2021/08/25 10:02:51;;;;;;;6.70;3.13;;;26.60;59.20;;;;;;5068400;28;20064;-73
2021/08/25 10:05:25;;;;;;;6.15;3.20;;;26.70;58.00;;;;;;5064766;28;20028;-73
2021/08/25 10:07:51;;;;;;;;;;;26.70;58.70;;;;;;5063434;28;20032;-73
2021/08/25 10:10:17;;;;;;;5.50;2.90;;;25.80;59.00;;;;;;5062695;28;19917;-73
2021/08/25 10:12:42;;;;;;;6.15;3.03;;;26.10;59.50;;;;;;5063862;28;20412;-73
2021/08/25 10:15:30;;;;;;;5.60;3.03;;;26.50;58.60;;;;;;5066484;28;20037;-73
2021/08/25 10:17:56;;;;;;;4.65;2.50;;;27.20;58.70;;;;;;5067350;28;20417;-73
2021/08/25 10:20:34;;;;;;;5.95;3.00;;;27.70;55.70;;;;;;5068009;28;20048;-73
2021/08/25 10:23:02;;;;;;;5.63;2.80;;;27.70;58.20;;;;;;5067831;28;20151;-73
2021/08/25 10:25:28;;;;;;;5.60;2.97;;;27.80;58.00;;;;;;5064998;28;20348;-74
2021/08/25 10:28:05;;;;;;;6.72;3.25;;;27.80;55.80;;;;;;5068615;28;20473;-74
2021/08/25 10:30:55;;;;;;;5.68;3.03;;;26.70;59.40;;;;;;5059505;28;20417;-74
2021/08/25 10:33:21;;;;;;;5.20;2.72;;;26.10;58.10;;;;;;5062602;28;21349;-74
2021/08/25 10:35:47;;;;;;;8.38;3.00;;;24.90;62.10;;;;;;5064234;28;20040;-74
2021/08/25 10:38:29;;;;;;;6.18;3.22;;;24.50;62.30;;;;;;5068683;28;20099;-73
2021/08/25 10:41:22;;;;;;;9.25;3.35;;;23.60;63.30;;;;;;5063916;28;20021;-73
2021/08/25 10:43:47;;;;;;;11.15;3.25;;;22.90;66.10;;;;;;5059437;28;20111;-73
2021/08/25 10:46:15;;;;;;;7.07;3.17;;;23.40;66.70;;;;;;5066882;28;20173;-74
2021/08/25 10:48:45;;;;;;;5.97;2.55;;;24.10;65.60;;;;;;5068608;28;20029;-73
2021/08/25 10:51:30;;;;;;;10.63;3.08;;;25.50;62.10;;;;;;5068020;28;20031;-74
2021/08/25 10:53:56;;;;;;;8.30;3.30;;;26.90;59.00;;;;;;5065490;28;20033;-74
2021/08/25 10:56:32;;;;;;;13.55;4.75;;;26.80;59.30;;;;;;5066875;28;20059;-74
2021/08/25 10:59:08;;;;;;;8.85;3.65;;;26.40;58.40;;;;;;5066233;28;20479;-74
2021/08/25 11:01:41;;;;;;;5.75;3.03;;;25.90;60.20;;;;;;5067135;28;20024;-72
2021/08/25 11:04:13;;;;;;;5.75;2.95;;;26.40;58.30;;;;;;5064353;28;20028;-72
2021/08/25 11:06:45;;;;;;;6.15;3.40;;;27.00;57.40;;;;;;5067366;28;20036;-72
2021/08/25 11:09:26;;;;;;;6.90;3.50;;;26.30;58.20;;;;;;5062444;28;20039;-71
2021/08/25 11:12:10;;;;;;;7.20;3.38;;;26.80;59.30;;;;;;5067323;28;20043;-72
2021/08/25 11:14:44;;;;;;;5.90;2.97;;;27.10;58.60;;;;;;5066542;28;20082;-72
2021/08/25 11:17:12;;;;;;;6.82;3.10;;;26.90;55.60;;;;;;5067316;28;20028;-72
2021/08/25 11:20:11;;;;;;;7.28;3.22;;;26.40;55.40;;;;;;5065414;28;20024;-72
2021/08/25 11:22:39;;;;;;;5.63;3.08;;;26.30;58.10;;;;;;5033280;28;20044;-72
2021/08/25 11:25:07;;;;;;;7.13;3.13;;;26.10;57.90;;;;;;5065246;28;20593;-71
2021/08/25 11:27:44;;;;;;;7.10;3.00;;;25.80;60.60;;;;;;5057838;28;20036;-71
2021/08/25 11:30:13;;;;;;;6.35;3.33;;;25.80;63.10;;;;;;5064870;28;20037;-72
2021/08/25 11:32:53;;;;;;;6.43;3.60;;;26.00;60.40;;;;;;5055962;28;20033;-72
2021/08/25 11:35:32;;;;;;;6.68;4.00;;;25.40;62.50;;;;;;5061578;28;20051;-71
2021/08/25 11:38:01;;;;;;;6.88;3.70;;;24.10;63.80;;;;;;5065773;28;20047;-71
2021/08/25 11:40:31;;;;;;;7.35;3.60;;;23.20;66.80;;;;;;5063363;28;20055;-72
2021/08/25 11:43:07;;;;;;;7.22;3.60;;;23.40;67.00;;;;;;5067502;28;20024;-72
2021/08/25 11:45:34;;;;;;;8.43;4.53;;;24.50;65.20;;;;;;5068130;28;20028;-72
2021/08/25 11:48:01;;;;;;;7.60;3.65;;;24.00;64.40;;;;;;5065814;28;20043;-74
2021/08/25 11:50:32;;;;;;;6.10;3.33;;;22.90;67.10;;;;;;5069413;28;20025;-71
2021/08/25 11:53:02;;;;;;;7.45;3.55;;;23.30;67.80;;;;;;5067331;28;20116;-72
2021/08/25 11:55:34;;;;;;;9.18;3.58;;;23.60;66.90;;;;;;5068544;28;20040;-72
2021/08/25 11:58:00;;;;;;;7.57;3.72;;;23.60;66.40;;;;;;5068173;28;20053;-72
2021/08/25 12:00:40;;;;;;;7.93;3.47;;;24.00;68.60;;;;;;5067352;28;20068;-73
2021/08/25 12:03:09;;;;;;;7.88;3.85;;;24.40;66.20;;;;;;5067902;28;20029;-73
2021/08/25 12:05:40;;;;;;;7.05;3.42;;;24.90;62.60;;;;;;5066260;28;20082;-73
2021/08/25 12:08:11;;;;;;;8.57;3.80;;;24.60;63.10;;;;;;5067143;28;20409;-73
2021/08/25 12:11:04;;;;;;;7.80;4.07;;;24.00;64.20;;;;;;5067580;28;20035;-73
2021/08/25 12:13:33;;;;;;;6.68;3.92;;;23.60;64.80;;;;;;5066116;28;20043;-73
2021/08/25 12:16:01;;;;;;;8.07;3.53;;;23.50;65.00;;;;;;5068962;28;20027;-73
2021/08/25 12:18:29;;;;;;;9.07;3.95;;;23.40;66.30;;;;;;5065428;28;20082;-73
2021/08/25 12:20:57;;;;;;;7.10;3.92;;;23.80;66.70;;;;;;5065892;28;20099;-73
2021/08/25 12:23:27;;;;;;;9.95;4.65;;;24.10;66.60;;;;;;5067547;28;20552;-73
2021/08/25 12:25:55;;;;;;;7.28;4.38;;;24.40;64.00;;;;;;5064847;28;20130;-73
2021/08/25 12:28:38;;;;;;;7.25;3.90;;;24.50;62.30;;;;;;5069356;28;20028;-72
2021/08/25 12:31:24;;;;;;;6.90;3.20;;;24.00;63.80;;;;;;5067889;28;20032;-73
2021/08/25 12:34:02;;;;;;;8.25;4.30;;;23.70;65.50;;;;;;5062623;28;20032;-72
2021/08/25 12:36:34;;;;;;;9.10;3.90;;;23.70;63.50;;;;;;5067453;28;21403;-72
2021/08/25 12:39:06;;;;;;;6.68;3.72;;;23.70;65.00;;;;;;5072138;28;20046;-72
2021/08/25 12:41:33;;;;;;;8.43;3.88;;;23.90;64.20;;;;;;5070974;28;20035;-72